La Grange, TX

11:09 PM CST on March 04, 2015 (GMT -0600)
Horton Street, La Grange, Tx | Change Station
CLOSE
Current Station
Personal Weather Station
Location: La Grange, TX
Elevation: 344 ft
Nearby Weather Stations
Active Advisory: Wind Advisory Active Notice: Public Information Statement

Elev 344 ft 29.92 °N, 96.87 °W | Updated 11 seconds ago

Overcast
Overcast
36.7 °F
Feels Like 28 °F
N
15.0
Wind Variable Wind from NNW
Gusts 19.9 mph

Today
High -- | Low -- °F
--% Chance of Precip.
Yesterday
High -- | Low -- °F
Precip. -- in
6:50 AM 6:28 PM
Full, 100% visible
Pressure 30.13 in
Visibility 5.0 miles
Clouds Overcast 1000 ft
Windchill 28 °F
Dew Point 34 °F
Humidity 91%
Rainfall in
Snow Depth Not available.
UV 0.0 out of 12
Pollen 6.60 out of 12
Air Quality Not available.
Flu Activity Not available.
METAR K3T5 050455Z AUTO 35015G29KT 5SM BR OVC010 03/02 A3013 RMK AO2 T00300021

More Conditions Fewer Conditions

Pressure 30.13 in
Visibility 5.0 miles
Clouds Overcast 1000 ft
Windchill 28 °F
Dew Point 34 °F
Humidity 91%
Rainfall in
Snow Depth Not available.
UV 0.0 out of 12
Pollen 6.60 out of 12
Air Quality Not available.
Flu Activity Not available.
METAR K3T5 050455Z AUTO 35015G29KT 5SM BR OVC010 03/02 A3013 RMK AO2 T00300021

More Conditions Fewer Conditions

Nowcast | as of 10:13 PM CST on March 4, 2015

Wind Advisory in effect until noon CST Thursday... light rain is affecting areas along and south of Highway 90. Looking to the west...additional rain is on the way as an upper level disturbance pushes across the Southern Plains. Temperatures will continue to drop with cold rain expected overnight through Thursday morning.

×

10-Day Weather Forecast

Almanac

Astronomy

Mar. 04, 2015 Rise Set
Actual Time
Civil Twilight
Nautical Twilight
Astronomical Twilight
Moon
Length of Visible Light
Length of Day
Tomorrow will be .
, % of the Moon is Illuminated

Today's Extremes

State Highs State Lows

Community

WunderPhotos

Upload Photos

1,802,684 photos uploaded!

WunderBlogs® & News

Nearby

Air Quality

  Air Quality AQ Index Pollutant
Not available.

Snow Depth

Station Depth Elevation

Earthquake Activity

City Distance Mag. Time & Date
Minimum magnitude displayed is 2.5.

Coastal Water Temperatures

Place Temperature

Nearby Weather Stations

Wind Advisory
Statement as of 7:02 PM CST on March 04, 2015

... Wind Advisory now in effect until noon CST Thursday...

* timing... 9 PM Wednesday night through noon Thursday

* winds... sustained at 20 to 30 mph with gusts to 40 mph.

* Impacts... typical issues with trash cans and other loose items
outdoors. However... when combined with freezing rain and
sleet... icing on tree branches may cause them to break in the
strong winds.

Precautionary/preparedness actions...

A Wind Advisory means that sustained winds of 26 to 39 mph are
expected. Winds this strong can make driving difficult...
especially for high profile vehicles. Use extra caution.



Tb3